sensor_id;sensor_type;location;lat;lon;timestamp;P1;durP1;ratioP1;P2;durP2;ratioP2
33184;SDS011;19550;42.872;25.494;2023-06-26T00:00:07;1.35;;;1.00;;
33184;SDS011;19550;42.872;25.494;2023-06-26T00:02:36;2.47;;;1.10;;
33184;SDS011;19550;42.872;25.494;2023-06-26T00:05:03;6.38;;;1.58;;
33184;SDS011;19550;42.872;25.494;2023-06-26T00:07:32;1.90;;;1.35;;
33184;SDS011;19550;42.872;25.494;2023-06-26T00:10:00;2.22;;;1.23;;
33184;SDS011;19550;42.872;25.494;2023-06-26T00:12:27;3.33;;;1.40;;
33184;SDS011;19550;42.872;25.494;2023-06-26T00:14:55;3.78;;;1.70;;
33184;SDS011;19550;42.872;25.494;2023-06-26T00:17:22;3.10;;;1.90;;
33184;SDS011;19550;42.872;25.494;2023-06-26T00:19:49;3.90;;;1.80;;
33184;SDS011;19550;42.872;25.494;2023-06-26T00:22:17;5.75;;;2.08;;
33184;SDS011;19550;42.872;25.494;2023-06-26T00:24:45;5.47;;;2.17;;
33184;SDS011;19550;42.872;25.494;2023-06-26T00:27:12;2.20;;;2.00;;
33184;SDS011;19550;42.872;25.494;2023-06-26T00:29:39;8.25;;;2.38;;
33184;SDS011;19550;42.872;25.494;2023-06-26T00:32:06;5.82;;;2.60;;
33184;SDS011;19550;42.872;25.494;2023-06-26T00:34:33;4.43;;;2.65;;
33184;SDS011;19550;42.872;25.494;2023-06-26T00:36:59;6.72;;;2.85;;
33184;SDS011;19550;42.872;25.494;2023-06-26T00:39:26;3.35;;;2.60;;
33184;SDS011;19550;42.872;25.494;2023-06-26T00:41:54;3.78;;;2.60;;
33184;SDS011;19550;42.872;25.494;2023-06-26T00:44:21;3.50;;;2.13;;
33184;SDS011;19550;42.872;25.494;2023-06-26T00:46:48;3.55;;;2.10;;
33184;SDS011;19550;42.872;25.494;2023-06-26T00:49:16;4.68;;;2.38;;
33184;SDS011;19550;42.872;25.494;2023-06-26T00:51:43;7.75;;;2.75;;
33184;SDS011;19550;42.872;25.494;2023-06-26T00:54:10;7.38;;;2.20;;
33184;SDS011;19550;42.872;25.494;2023-06-26T00:56:37;4.50;;;1.98;;
33184;SDS011;19550;42.872;25.494;2023-06-26T00:59:05;6.63;;;2.40;;
33184;SDS011;19550;42.872;25.494;2023-06-26T01:01:32;4.57;;;1.67;;
33184;SDS011;19550;42.872;25.494;2023-06-26T01:03:59;2.95;;;2.10;;
33184;SDS011;19550;42.872;25.494;2023-06-26T01:06:26;3.63;;;1.65;;
33184;SDS011;19550;42.872;25.494;2023-06-26T01:08:57;3.10;;;1.77;;
33184;SDS011;19550;42.872;25.494;2023-06-26T01:11:24;3.40;;;1.77;;
33184;SDS011;19550;42.872;25.494;2023-06-26T01:13:51;7.22;;;1.77;;
33184;SDS011;19550;42.872;25.494;2023-06-26T01:16:20;5.97;;;1.77;;
33184;SDS011;19550;42.872;25.494;2023-06-26T01:18:47;6.30;;;2.15;;
33184;SDS011;19550;42.872;25.494;2023-06-26T01:21:15;8.48;;;1.80;;
33184;SDS011;19550;42.872;25.494;2023-06-26T01:23:47;5.00;;;2.30;;
33184;SDS011;19550;42.872;25.494;2023-06-26T01:26:26;5.40;;;1.83;;
33184;SDS011;19550;42.872;25.494;2023-06-26T01:28:54;3.28;;;2.10;;
33184;SDS011;19550;42.872;25.494;2023-06-26T01:31:23;6.22;;;2.20;;
33184;SDS011;19550;42.872;25.494;2023-06-26T01:33:50;8.05;;;2.28;;
33184;SDS011;19550;42.872;25.494;2023-06-26T01:36:18;7.60;;;2.72;;
33184;SDS011;19550;42.872;25.494;2023-06-26T01:38:45;8.00;;;2.85;;
33184;SDS011;19550;42.872;25.494;2023-06-26T01:41:11;6.30;;;2.50;;
33184;SDS011;19550;42.872;25.494;2023-06-26T01:43:43;3.92;;;2.60;;
33184;SDS011;19550;42.872;25.494;2023-06-26T01:46:31;3.85;;;2.25;;
33184;SDS011;19550;42.872;25.494;2023-06-26T01:49:05;5.05;;;2.97;;
33184;SDS011;19550;42.872;25.494;2023-06-26T01:51:38;5.85;;;2.83;;
33184;SDS011;19550;42.872;25.494;2023-06-26T01:54:10;7.63;;;2.92;;
33184;SDS011;19550;42.872;25.494;2023-06-26T01:56:40;7.10;;;3.15;;
33184;SDS011;19550;42.872;25.494;2023-06-26T01:59:10;3.80;;;2.78;;
33184;SDS011;19550;42.872;25.494;2023-06-26T02:01:39;5.53;;;3.33;;
33184;SDS011;19550;42.872;25.494;2023-06-26T02:04:06;6.72;;;3.13;;
33184;SDS011;19550;42.872;25.494;2023-06-26T02:06:33;15.30;;;3.40;;
33184;SDS011;19550;42.872;25.494;2023-06-26T02:09:00;9.05;;;3.13;;
33184;SDS011;19550;42.872;25.494;2023-06-26T02:11:27;8.85;;;3.17;;
33184;SDS011;19550;42.872;25.494;2023-06-26T02:13:54;11.80;;;3.40;;
33184;SDS011;19550;42.872;25.494;2023-06-26T02:16:22;5.32;;;3.30;;
33184;SDS011;19550;42.872;25.494;2023-06-26T02:18:49;4.32;;;3.22;;
33184;SDS011;19550;42.872;25.494;2023-06-26T02:21:16;5.85;;;2.90;;
33184;SDS011;19550;42.872;25.494;2023-06-26T02:23:42;6.38;;;3.30;;
33184;SDS011;19550;42.872;25.494;2023-06-26T02:26:09;8.65;;;3.67;;
33184;SDS011;19550;42.872;25.494;2023-06-26T02:28:36;7.63;;;3.53;;
33184;SDS011;19550;42.872;25.494;2023-06-26T02:31:03;6.28;;;3.53;;
33184;SDS011;19550;42.872;25.494;2023-06-26T02:33:31;10.35;;;3.40;;
33184;SDS011;19550;42.872;25.494;2023-06-26T02:35:58;6.30;;;3.00;;
33184;SDS011;19550;42.872;25.494;2023-06-26T02:38:25;7.00;;;3.75;;
33184;SDS011;19550;42.872;25.494;2023-06-26T02:40:52;7.28;;;3.63;;
33184;SDS011;19550;42.872;25.494;2023-06-26T02:43:18;8.13;;;4.00;;
33184;SDS011;19550;42.872;25.494;2023-06-26T02:45:45;5.93;;;3.70;;
33184;SDS011;19550;42.872;25.494;2023-06-26T02:48:12;8.63;;;3.67;;
33184;SDS011;19550;42.872;25.494;2023-06-26T02:50:40;12.52;;;4.35;;
33184;SDS011;19550;42.872;25.494;2023-06-26T02:53:10;10.27;;;4.38;;
33184;SDS011;19550;42.872;25.494;2023-06-26T02:55:37;9.32;;;4.35;;
33184;SDS011;19550;42.872;25.494;2023-06-26T02:58:04;6.53;;;4.22;;
33184;SDS011;19550;42.872;25.494;2023-06-26T03:00:31;11.20;;;4.70;;
33184;SDS011;19550;42.872;25.494;2023-06-26T03:02:58;9.05;;;4.10;;
33184;SDS011;19550;42.872;25.494;2023-06-26T03:05:25;8.32;;;4.38;;
33184;SDS011;19550;42.872;25.494;2023-06-26T03:07:53;11.55;;;5.38;;
33184;SDS011;19550;42.872;25.494;2023-06-26T03:10:20;9.50;;;5.35;;
33184;SDS011;19550;42.872;25.494;2023-06-26T03:12:48;8.10;;;5.20;;
33184;SDS011;19550;42.872;25.494;2023-06-26T03:15:15;8.25;;;5.38;;
33184;SDS011;19550;42.872;25.494;2023-06-26T03:17:42;10.73;;;4.95;;
33184;SDS011;19550;42.872;25.494;2023-06-26T03:20:09;7.57;;;4.57;;
33184;SDS011;19550;42.872;25.494;2023-06-26T03:22:36;10.85;;;5.20;;
33184;SDS011;19550;42.872;25.494;2023-06-26T03:25:04;13.57;;;5.15;;
33184;SDS011;19550;42.872;25.494;2023-06-26T03:27:32;13.03;;;5.40;;
33184;SDS011;19550;42.872;25.494;2023-06-26T03:29:58;9.30;;;5.25;;
33184;SDS011;19550;42.872;25.494;2023-06-26T03:32:25;11.18;;;5.32;;
33184;SDS011;19550;42.872;25.494;2023-06-26T03:34:52;8.68;;;5.60;;
33184;SDS011;19550;42.872;25.494;2023-06-26T03:37:19;9.70;;;5.18;;
33184;SDS011;19550;42.872;25.494;2023-06-26T03:39:46;11.50;;;5.55;;
33184;SDS011;19550;42.872;25.494;2023-06-26T03:42:14;6.60;;;5.35;;
33184;SDS011;19550;42.872;25.494;2023-06-26T03:44:41;7.95;;;5.10;;
33184;SDS011;19550;42.872;25.494;2023-06-26T03:47:08;11.80;;;6.20;;
33184;SDS011;19550;42.872;25.494;2023-06-26T03:49:37;13.13;;;5.18;;
33184;SDS011;19550;42.872;25.494;2023-06-26T03:52:04;14.80;;;6.13;;
33184;SDS011;19550;42.872;25.494;2023-06-26T03:54:31;11.98;;;5.55;;
33184;SDS011;19550;42.872;25.494;2023-06-26T03:56:59;10.63;;;5.47;;
33184;SDS011;19550;42.872;25.494;2023-06-26T03:59:27;10.43;;;5.72;;
33184;SDS011;19550;42.872;25.494;2023-06-26T04:01:54;9.10;;;5.60;;
33184;SDS011;19550;42.872;25.494;2023-06-26T04:04:21;13.32;;;6.50;;
33184;SDS011;19550;42.872;25.494;2023-06-26T04:06:48;10.95;;;7.45;;
33184;SDS011;19550;42.872;25.494;2023-06-26T04:09:15;14.32;;;8.18;;
33184;SDS011;19550;42.872;25.494;2023-06-26T04:11:44;18.70;;;14.13;;
33184;SDS011;19550;42.872;25.494;2023-06-26T04:14:11;13.82;;;9.75;;
33184;SDS011;19550;42.872;25.494;2023-06-26T04:16:40;10.75;;;7.32;;
33184;SDS011;19550;42.872;25.494;2023-06-26T04:19:07;13.00;;;5.75;;
33184;SDS011;19550;42.872;25.494;2023-06-26T04:21:35;16.48;;;12.38;;
33184;SDS011;19550;42.872;25.494;2023-06-26T04:24:02;10.88;;;5.85;;
33184;SDS011;19550;42.872;25.494;2023-06-26T04:26:31;15.00;;;10.68;;
33184;SDS011;19550;42.872;25.494;2023-06-26T04:28:58;12.00;;;7.40;;
33184;SDS011;19550;42.872;25.494;2023-06-26T04:31:27;17.50;;;10.70;;
33184;SDS011;19550;42.872;25.494;2023-06-26T04:33:55;12.07;;;6.20;;
33184;SDS011;19550;42.872;25.494;2023-06-26T04:36:23;9.68;;;6.32;;
33184;SDS011;19550;42.872;25.494;2023-06-26T04:38:53;8.20;;;5.95;;
33184;SDS011;19550;42.872;25.494;2023-06-26T04:41:25;7.82;;;6.13;;
33184;SDS011;19550;42.872;25.494;2023-06-26T04:43:52;13.45;;;7.22;;
33184;SDS011;19550;42.872;25.494;2023-06-26T04:46:19;15.73;;;8.20;;
33184;SDS011;19550;42.872;25.494;2023-06-26T04:48:45;10.57;;;6.60;;
33184;SDS011;19550;42.872;25.494;2023-06-26T04:51:14;11.68;;;6.28;;
33184;SDS011;19550;42.872;25.494;2023-06-26T04:53:41;8.63;;;6.55;;
33184;SDS011;19550;42.872;25.494;2023-06-26T04:56:07;11.73;;;6.45;;
33184;SDS011;19550;42.872;25.494;2023-06-26T04:58:35;10.25;;;7.28;;
33184;SDS011;19550;42.872;25.494;2023-06-26T05:01:02;10.85;;;7.57;;
33184;SDS011;19550;42.872;25.494;2023-06-26T05:03:32;11.32;;;8.35;;
33184;SDS011;19550;42.872;25.494;2023-06-26T05:06:00;15.40;;;7.93;;
33184;SDS011;19550;42.872;25.494;2023-06-26T05:08:28;12.02;;;8.02;;
33184;SDS011;19550;42.872;25.494;2023-06-26T05:10:55;17.73;;;8.80;;
33184;SDS011;19550;42.872;25.494;2023-06-26T05:13:23;11.23;;;8.05;;
33184;SDS011;19550;42.872;25.494;2023-06-26T05:15:50;11.82;;;8.70;;
33184;SDS011;19550;42.872;25.494;2023-06-26T05:18:18;12.15;;;8.35;;
33184;SDS011;19550;42.872;25.494;2023-06-26T05:20:45;12.50;;;8.88;;
33184;SDS011;19550;42.872;25.494;2023-06-26T05:23:13;11.60;;;8.38;;
33184;SDS011;19550;42.872;25.494;2023-06-26T05:25:43;16.48;;;9.25;;
33184;SDS011;19550;42.872;25.494;2023-06-26T05:28:11;12.88;;;9.55;;
33184;SDS011;19550;42.872;25.494;2023-06-26T05:33:07;13.35;;;9.15;;
33184;SDS011;19550;42.872;25.494;2023-06-26T05:38:03;13.90;;;11.13;;
33184;SDS011;19550;42.872;25.494;2023-06-26T05:40:31;15.70;;;10.98;;
33184;SDS011;19550;42.872;25.494;2023-06-26T05:43:01;15.65;;;11.35;;
33184;SDS011;19550;42.872;25.494;2023-06-26T05:45:28;19.92;;;13.15;;
33184;SDS011;19550;42.872;25.494;2023-06-26T05:47:55;16.70;;;12.68;;
33184;SDS011;19550;42.872;25.494;2023-06-26T05:50:22;16.02;;;11.38;;
33184;SDS011;19550;42.872;25.494;2023-06-26T05:52:49;18.15;;;11.50;;
33184;SDS011;19550;42.872;25.494;2023-06-26T05:55:17;16.73;;;11.90;;
33184;SDS011;19550;42.872;25.494;2023-06-26T05:57:45;18.75;;;12.10;;
33184;SDS011;19550;42.872;25.494;2023-06-26T06:00:14;18.95;;;12.88;;
33184;SDS011;19550;42.872;25.494;2023-06-26T06:02:42;15.63;;;11.73;;
33184;SDS011;19550;42.872;25.494;2023-06-26T06:05:09;17.83;;;11.57;;
33184;SDS011;19550;42.872;25.494;2023-06-26T06:07:36;19.65;;;13.35;;
33184;SDS011;19550;42.872;25.494;2023-06-26T06:10:04;15.90;;;10.88;;
33184;SDS011;19550;42.872;25.494;2023-06-26T06:12:31;15.50;;;10.65;;
33184;SDS011;19550;42.872;25.494;2023-06-26T06:14:58;12.13;;;9.38;;
33184;SDS011;19550;42.872;25.494;2023-06-26T06:17:26;13.07;;;10.88;;
33184;SDS011;19550;42.872;25.494;2023-06-26T06:19:53;12.90;;;10.07;;
33184;SDS011;19550;42.872;25.494;2023-06-26T06:22:20;28.17;;;19.65;;
33184;SDS011;19550;42.872;25.494;2023-06-26T06:24:48;14.32;;;11.10;;
33184;SDS011;19550;42.872;25.494;2023-06-26T06:27:15;14.35;;;12.13;;
33184;SDS011;19550;42.872;25.494;2023-06-26T06:29:42;16.75;;;13.27;;
33184;SDS011;19550;42.872;25.494;2023-06-26T06:32:09;15.45;;;12.00;;
33184;SDS011;19550;42.872;25.494;2023-06-26T06:34:37;18.67;;;12.23;;
33184;SDS011;19550;42.872;25.494;2023-06-26T06:37:04;17.67;;;13.13;;
33184;SDS011;19550;42.872;25.494;2023-06-26T06:39:31;18.85;;;12.57;;
33184;SDS011;19550;42.872;25.494;2023-06-26T06:41:57;16.85;;;13.30;;
33184;SDS011;19550;42.872;25.494;2023-06-26T06:44:24;17.63;;;13.43;;
33184;SDS011;19550;42.872;25.494;2023-06-26T06:46:51;18.60;;;13.75;;
33184;SDS011;19550;42.872;25.494;2023-06-26T06:49:18;19.88;;;14.20;;
33184;SDS011;19550;42.872;25.494;2023-06-26T06:51:46;16.00;;;13.27;;
33184;SDS011;19550;42.872;25.494;2023-06-26T06:54:14;15.98;;;12.52;;
33184;SDS011;19550;42.872;25.494;2023-06-26T06:56:42;14.43;;;12.50;;
33184;SDS011;19550;42.872;25.494;2023-06-26T06:59:08;14.43;;;12.02;;
33184;SDS011;19550;42.872;25.494;2023-06-26T07:01:35;16.33;;;11.70;;
33184;SDS011;19550;42.872;25.494;2023-06-26T07:04:02;20.48;;;14.27;;
33184;SDS011;19550;42.872;25.494;2023-06-26T07:06:30;21.17;;;13.80;;
33184;SDS011;19550;42.872;25.494;2023-06-26T07:08:58;18.25;;;13.90;;
33184;SDS011;19550;42.872;25.494;2023-06-26T07:11:25;17.40;;;13.55;;
33184;SDS011;19550;42.872;25.494;2023-06-26T07:13:51;16.42;;;14.55;;
33184;SDS011;19550;42.872;25.494;2023-06-26T07:16:18;20.77;;;14.63;;
33184;SDS011;19550;42.872;25.494;2023-06-26T07:18:45;15.48;;;12.50;;
33184;SDS011;19550;42.872;25.494;2023-06-26T07:21:12;11.90;;;10.43;;
33184;SDS011;19550;42.872;25.494;2023-06-26T07:23:39;12.70;;;10.27;;
33184;SDS011;19550;42.872;25.494;2023-06-26T07:26:07;13.55;;;11.10;;
33184;SDS011;19550;42.872;25.494;2023-06-26T07:28:33;13.50;;;12.10;;
33184;SDS011;19550;42.872;25.494;2023-06-26T07:31:00;15.75;;;12.18;;
33184;SDS011;19550;42.872;25.494;2023-06-26T07:33:27;14.30;;;11.35;;
33184;SDS011;19550;42.872;25.494;2023-06-26T07:35:54;15.73;;;11.82;;
33184;SDS011;19550;42.872;25.494;2023-06-26T07:38:21;14.95;;;11.75;;
33184;SDS011;19550;42.872;25.494;2023-06-26T07:40:48;13.05;;;11.63;;
33184;SDS011;19550;42.872;25.494;2023-06-26T07:43:16;17.27;;;12.15;;
33184;SDS011;19550;42.872;25.494;2023-06-26T07:45:43;16.00;;;11.45;;
33184;SDS011;19550;42.872;25.494;2023-06-26T07:48:10;12.15;;;10.65;;
33184;SDS011;19550;42.872;25.494;2023-06-26T07:50:36;13.10;;;10.45;;
33184;SDS011;19550;42.872;25.494;2023-06-26T07:53:03;15.10;;;11.45;;
33184;SDS011;19550;42.872;25.494;2023-06-26T07:55:30;17.30;;;11.40;;
33184;SDS011;19550;42.872;25.494;2023-06-26T07:57:57;16.02;;;12.43;;
33184;SDS011;19550;42.872;25.494;2023-06-26T08:00:25;14.50;;;12.13;;
33184;SDS011;19550;42.872;25.494;2023-06-26T08:02:52;17.08;;;12.02;;
33184;SDS011;19550;42.872;25.494;2023-06-26T08:05:19;14.95;;;11.57;;
33184;SDS011;19550;42.872;25.494;2023-06-26T08:07:46;14.95;;;12.80;;
33184;SDS011;19550;42.872;25.494;2023-06-26T08:10:13;18.25;;;12.80;;
33184;SDS011;19550;42.872;25.494;2023-06-26T08:12:39;18.75;;;13.20;;
33184;SDS011;19550;42.872;25.494;2023-06-26T08:15:08;18.73;;;13.35;;
33184;SDS011;19550;42.872;25.494;2023-06-26T08:17:36;15.68;;;12.82;;
33184;SDS011;19550;42.872;25.494;2023-06-26T08:20:04;17.75;;;12.15;;
33184;SDS011;19550;42.872;25.494;2023-06-26T08:22:33;15.63;;;12.57;;
33184;SDS011;19550;42.872;25.494;2023-06-26T08:25:00;17.63;;;11.85;;
33184;SDS011;19550;42.872;25.494;2023-06-26T08:27:26;14.38;;;10.82;;
33184;SDS011;19550;42.872;25.494;2023-06-26T08:29:53;13.30;;;10.95;;
33184;SDS011;19550;42.872;25.494;2023-06-26T08:32:20;12.45;;;9.85;;
33184;SDS011;19550;42.872;25.494;2023-06-26T08:34:48;13.55;;;10.82;;
33184;SDS011;19550;42.872;25.494;2023-06-26T08:37:15;13.45;;;10.68;;
33184;SDS011;19550;42.872;25.494;2023-06-26T08:39:42;14.77;;;11.35;;
33184;SDS011;19550;42.872;25.494;2023-06-26T08:42:09;12.25;;;9.40;;
33184;SDS011;19550;42.872;25.494;2023-06-26T08:44:36;11.25;;;9.90;;
33184;SDS011;19550;42.872;25.494;2023-06-26T08:47:03;11.75;;;9.43;;
33184;SDS011;19550;42.872;25.494;2023-06-26T08:49:34;10.65;;;8.23;;
33184;SDS011;19550;42.872;25.494;2023-06-26T08:52:13;9.60;;;7.68;;
33184;SDS011;19550;42.872;25.494;2023-06-26T08:54:45;10.10;;;7.90;;
33184;SDS011;19550;42.872;25.494;2023-06-26T08:57:14;9.85;;;7.93;;
33184;SDS011;19550;42.872;25.494;2023-06-26T08:59:44;11.00;;;8.43;;
33184;SDS011;19550;42.872;25.494;2023-06-26T09:02:12;11.02;;;8.50;;
33184;SDS011;19550;42.872;25.494;2023-06-26T09:04:39;11.52;;;7.95;;
33184;SDS011;19550;42.872;25.494;2023-06-26T09:07:07;14.57;;;10.70;;
33184;SDS011;19550;42.872;25.494;2023-06-26T09:09:35;10.95;;;8.95;;
33184;SDS011;19550;42.872;25.494;2023-06-26T09:12:03;13.63;;;10.70;;
33184;SDS011;19550;42.872;25.494;2023-06-26T09:14:30;13.48;;;9.10;;
33184;SDS011;19550;42.872;25.494;2023-06-26T09:16:57;11.75;;;8.60;;
33184;SDS011;19550;42.872;25.494;2023-06-26T09:19:23;10.30;;;8.68;;
33184;SDS011;19550;42.872;25.494;2023-06-26T09:21:50;12.82;;;7.97;;
33184;SDS011;19550;42.872;25.494;2023-06-26T09:24:17;15.13;;;9.85;;
33184;SDS011;19550;42.872;25.494;2023-06-26T09:26:45;10.52;;;9.10;;
33184;SDS011;19550;42.872;25.494;2023-06-26T09:29:13;12.60;;;8.23;;
33184;SDS011;19550;42.872;25.494;2023-06-26T09:31:40;12.77;;;7.95;;
33184;SDS011;19550;42.872;25.494;2023-06-26T09:34:08;18.70;;;7.43;;
33184;SDS011;19550;42.872;25.494;2023-06-26T09:36:35;8.27;;;6.88;;
33184;SDS011;19550;42.872;25.494;2023-06-26T09:39:03;8.65;;;5.85;;
33184;SDS011;19550;42.872;25.494;2023-06-26T09:41:33;9.32;;;6.50;;
33184;SDS011;19550;42.872;25.494;2023-06-26T09:44:02;11.32;;;6.68;;
33184;SDS011;19550;42.872;25.494;2023-06-26T09:46:30;11.55;;;7.07;;
33184;SDS011;19550;42.872;25.494;2023-06-26T09:48:58;9.48;;;7.07;;
33184;SDS011;19550;42.872;25.494;2023-06-26T09:53:55;10.63;;;6.65;;
33184;SDS011;19550;42.872;25.494;2023-06-26T09:56:22;9.90;;;6.78;;
33184;SDS011;19550;42.872;25.494;2023-06-26T09:58:49;9.52;;;7.53;;
33184;SDS011;19550;42.872;25.494;2023-06-26T10:01:18;8.80;;;7.03;;
33184;SDS011;19550;42.872;25.494;2023-06-26T10:03:45;10.75;;;6.00;;
33184;SDS011;19550;42.872;25.494;2023-06-26T10:06:12;11.30;;;6.15;;
33184;SDS011;19550;42.872;25.494;2023-06-26T10:08:40;10.07;;;6.28;;
33184;SDS011;19550;42.872;25.494;2023-06-26T10:11:10;8.25;;;6.78;;
33184;SDS011;19550;42.872;25.494;2023-06-26T10:13:42;11.90;;;6.25;;
33184;SDS011;19550;42.872;25.494;2023-06-26T10:16:11;10.98;;;6.40;;
33184;SDS011;19550;42.872;25.494;2023-06-26T10:18:40;9.25;;;6.03;;
33184;SDS011;19550;42.872;25.494;2023-06-26T10:21:09;10.00;;;6.72;;
33184;SDS011;19550;42.872;25.494;2023-06-26T10:23:39;9.27;;;6.97;;
33184;SDS011;19550;42.872;25.494;2023-06-26T10:26:08;10.38;;;6.45;;
33184;SDS011;19550;42.872;25.494;2023-06-26T10:28:37;11.65;;;6.45;;
33184;SDS011;19550;42.872;25.494;2023-06-26T10:31:06;10.07;;;6.60;;
33184;SDS011;19550;42.872;25.494;2023-06-26T10:33:35;9.43;;;6.20;;
33184;SDS011;19550;42.872;25.494;2023-06-26T10:36:14;10.65;;;6.57;;
33184;SDS011;19550;42.872;25.494;2023-06-26T10:41:19;8.23;;;6.38;;
33184;SDS011;19550;42.872;25.494;2023-06-26T10:43:48;10.40;;;6.45;;
33184;SDS011;19550;42.872;25.494;2023-06-26T10:46:15;13.30;;;6.10;;
33184;SDS011;19550;42.872;25.494;2023-06-26T10:48:57;11.60;;;7.30;;
33184;SDS011;19550;42.872;25.494;2023-06-26T10:51:26;9.38;;;6.93;;
33184;SDS011;19550;42.872;25.494;2023-06-26T10:53:54;13.15;;;6.32;;
33184;SDS011;19550;42.872;25.494;2023-06-26T10:56:21;7.05;;;6.03;;
33184;SDS011;19550;42.872;25.494;2023-06-26T10:59:16;12.60;;;6.45;;
33184;SDS011;19550;42.872;25.494;2023-06-26T11:01:45;7.07;;;5.68;;
33184;SDS011;19550;42.872;25.494;2023-06-26T11:04:13;7.47;;;5.50;;
33184;SDS011;19550;42.872;25.494;2023-06-26T11:06:44;9.00;;;6.00;;
33184;SDS011;19550;42.872;25.494;2023-06-26T11:09:14;10.70;;;6.18;;
33184;SDS011;19550;42.872;25.494;2023-06-26T11:11:56;8.95;;;6.22;;
33184;SDS011;19550;42.872;25.494;2023-06-26T11:14:36;7.90;;;5.60;;
33184;SDS011;19550;42.872;25.494;2023-06-26T11:17:03;7.32;;;6.00;;
33184;SDS011;19550;42.872;25.494;2023-06-26T11:19:30;11.10;;;6.15;;
33184;SDS011;19550;42.872;25.494;2023-06-26T11:22:10;7.60;;;6.20;;
33184;SDS011;19550;42.872;25.494;2023-06-26T11:24:38;10.00;;;5.55;;
33184;SDS011;19550;42.872;25.494;2023-06-26T11:27:05;8.63;;;5.75;;
33184;SDS011;19550;42.872;25.494;2023-06-26T11:29:32;9.13;;;5.50;;
33184;SDS011;19550;42.872;25.494;2023-06-26T11:32:00;9.60;;;5.13;;
33184;SDS011;19550;42.872;25.494;2023-06-26T11:34:30;7.55;;;6.22;;
33184;SDS011;19550;42.872;25.494;2023-06-26T11:36:58;7.05;;;5.57;;
33184;SDS011;19550;42.872;25.494;2023-06-26T11:39:28;8.30;;;5.47;;
33184;SDS011;19550;42.872;25.494;2023-06-26T11:41:55;9.82;;;5.47;;
33184;SDS011;19550;42.872;25.494;2023-06-26T11:44:22;12.13;;;5.80;;
33184;SDS011;19550;42.872;25.494;2023-06-26T11:46:51;7.40;;;5.75;;
33184;SDS011;19550;42.872;25.494;2023-06-26T11:49:20;8.57;;;5.70;;
33184;SDS011;19550;42.872;25.494;2023-06-26T11:51:50;7.50;;;5.63;;
33184;SDS011;19550;42.872;25.494;2023-06-26T11:54:22;10.82;;;6.05;;
33184;SDS011;19550;42.872;25.494;2023-06-26T11:56:58;10.40;;;5.65;;
33184;SDS011;19550;42.872;25.494;2023-06-26T11:59:36;8.55;;;5.60;;
33184;SDS011;19550;42.872;25.494;2023-06-26T12:02:05;11.88;;;6.38;;
33184;SDS011;19550;42.872;25.494;2023-06-26T12:04:33;9.38;;;5.80;;
33184;SDS011;19550;42.872;25.494;2023-06-26T12:07:01;9.63;;;5.88;;
33184;SDS011;19550;42.872;25.494;2023-06-26T12:09:32;10.85;;;5.63;;
33184;SDS011;19550;42.872;25.494;2023-06-26T12:12:01;8.40;;;6.30;;
33184;SDS011;19550;42.872;25.494;2023-06-26T12:14:28;10.77;;;5.53;;
33184;SDS011;19550;42.872;25.494;2023-06-26T12:17:03;12.23;;;5.80;;
33184;SDS011;19550;42.872;25.494;2023-06-26T12:19:30;6.90;;;4.57;;
33184;SDS011;19550;42.872;25.494;2023-06-26T12:21:57;7.53;;;5.00;;
33184;SDS011;19550;42.872;25.494;2023-06-26T12:24:24;6.10;;;4.75;;
33184;SDS011;19550;42.872;25.494;2023-06-26T12:26:52;6.95;;;4.32;;
33184;SDS011;19550;42.872;25.494;2023-06-26T12:29:29;7.88;;;4.25;;
33184;SDS011;19550;42.872;25.494;2023-06-26T12:31:59;10.18;;;5.30;;
33184;SDS011;19550;42.872;25.494;2023-06-26T12:34:27;11.23;;;7.22;;
33184;SDS011;19550;42.872;25.494;2023-06-26T12:36:59;9.77;;;5.80;;
33184;SDS011;19550;42.872;25.494;2023-06-26T12:39:28;6.57;;;4.78;;
33184;SDS011;19550;42.872;25.494;2023-06-26T12:41:57;8.52;;;4.47;;
33184;SDS011;19550;42.872;25.494;2023-06-26T12:44:28;8.25;;;4.50;;
33184;SDS011;19550;42.872;25.494;2023-06-26T12:46:56;11.07;;;4.53;;
33184;SDS011;19550;42.872;25.494;2023-06-26T12:49:31;9.40;;;4.85;;
33184;SDS011;19550;42.872;25.494;2023-06-26T12:51:58;7.20;;;4.28;;
33184;SDS011;19550;42.872;25.494;2023-06-26T12:54:25;9.45;;;5.13;;
33184;SDS011;19550;42.872;25.494;2023-06-26T12:56:52;7.63;;;4.55;;
33184;SDS011;19550;42.872;25.494;2023-06-26T12:59:19;10.05;;;4.63;;
33184;SDS011;19550;42.872;25.494;2023-06-26T13:01:47;6.00;;;5.20;;
33184;SDS011;19550;42.872;25.494;2023-06-26T13:04:14;6.07;;;4.57;;
33184;SDS011;19550;42.872;25.494;2023-06-26T13:06:42;6.28;;;4.72;;
33184;SDS011;19550;42.872;25.494;2023-06-26T13:09:08;8.85;;;4.97;;
33184;SDS011;19550;42.872;25.494;2023-06-26T13:11:36;6.10;;;4.50;;
33184;SDS011;19550;42.872;25.494;2023-06-26T13:14:03;8.27;;;4.90;;
33184;SDS011;19550;42.872;25.494;2023-06-26T13:16:31;6.45;;;4.32;;
33184;SDS011;19550;42.872;25.494;2023-06-26T13:18:59;10.63;;;4.93;;
33184;SDS011;19550;42.872;25.494;2023-06-26T13:21:27;9.97;;;4.90;;
33184;SDS011;19550;42.872;25.494;2023-06-26T13:23:54;8.93;;;5.13;;
33184;SDS011;19550;42.872;25.494;2023-06-26T13:26:21;6.57;;;4.43;;
33184;SDS011;19550;42.872;25.494;2023-06-26T13:28:49;7.95;;;4.68;;
33184;SDS011;19550;42.872;25.494;2023-06-26T13:31:16;6.57;;;4.47;;
33184;SDS011;19550;42.872;25.494;2023-06-26T13:33:43;5.93;;;4.72;;
33184;SDS011;19550;42.872;25.494;2023-06-26T13:36:12;10.43;;;4.80;;
33184;SDS011;19550;42.872;25.494;2023-06-26T13:38:39;10.13;;;4.55;;
33184;SDS011;19550;42.872;25.494;2023-06-26T13:41:06;7.47;;;4.75;;
33184;SDS011;19550;42.872;25.494;2023-06-26T13:43:33;11.18;;;5.25;;
33184;SDS011;19550;42.872;25.494;2023-06-26T13:46:00;13.73;;;6.75;;
33184;SDS011;19550;42.872;25.494;2023-06-26T13:48:28;13.20;;;5.82;;
33184;SDS011;19550;42.872;25.494;2023-06-26T13:50:55;12.15;;;5.38;;
33184;SDS011;19550;42.872;25.494;2023-06-26T13:53:24;9.75;;;4.47;;
33184;SDS011;19550;42.872;25.494;2023-06-26T13:55:50;13.05;;;4.20;;
33184;SDS011;19550;42.872;25.494;2023-06-26T13:58:17;8.05;;;4.90;;
33184;SDS011;19550;42.872;25.494;2023-06-26T14:00:44;11.35;;;4.90;;
33184;SDS011;19550;42.872;25.494;2023-06-26T14:03:11;9.00;;;5.00;;
33184;SDS011;19550;42.872;25.494;2023-06-26T14:05:38;8.43;;;4.70;;
33184;SDS011;19550;42.872;25.494;2023-06-26T14:08:07;8.50;;;4.47;;
33184;SDS011;19550;42.872;25.494;2023-06-26T14:10:37;7.97;;;5.13;;
33184;SDS011;19550;42.872;25.494;2023-06-26T14:13:04;8.07;;;4.80;;
33184;SDS011;19550;42.872;25.494;2023-06-26T14:15:33;13.57;;;5.00;;
33184;SDS011;19550;42.872;25.494;2023-06-26T14:18:00;13.35;;;5.38;;
33184;SDS011;19550;42.872;25.494;2023-06-26T14:20:28;9.90;;;4.93;;
33184;SDS011;19550;42.872;25.494;2023-06-26T14:22:57;6.07;;;4.65;;
33184;SDS011;19550;42.872;25.494;2023-06-26T14:25:24;14.50;;;9.57;;
33184;SDS011;19550;42.872;25.494;2023-06-26T14:27:54;29.45;;;20.33;;
33184;SDS011;19550;42.872;25.494;2023-06-26T14:30:22;8.80;;;5.30;;
33184;SDS011;19550;42.872;25.494;2023-06-26T14:32:48;9.45;;;5.72;;
33184;SDS011;19550;42.872;25.494;2023-06-26T14:35:15;14.45;;;5.95;;
33184;SDS011;19550;42.872;25.494;2023-06-26T14:37:44;8.48;;;6.15;;